Time;durP1;ratioP1;P1;durP2;ratioP2;P2;SDS_P1;SDS_P2;PMS_P1;PMS_P2;Temp;Humidity;BMP_temperature;BMP_pressure;BME280_temperature;BME280_humidity;BME280_pressure;Samples;Min_cycle;Max_cycle;Signal;HPM_P1;HPM_P2
2021/09/19 00:01:41;;;;;;;4.50;3.00;;;;;;;;;;4956375;28;20605;-76
2021/09/19 00:04:06;;;;;;;3.87;3.53;;;;;;;;;;4953205;28;20206;-76
2021/09/19 00:06:31;;;;;;;3.37;3.00;;;;;;;;;;4956189;28;20183;-76
2021/09/19 00:08:56;;;;;;;3.13;2.70;;;;;;;;;;4958456;28;20883;-76
2021/09/19 00:11:24;;;;;;;3.60;3.10;;;;;;;;;;4956550;28;20188;-76
2021/09/19 00:13:49;;;;;;;2.50;2.30;;;;;;;;;;4953653;28;20246;-76
2021/09/19 00:16:15;;;;;;;3.30;2.47;;;;;;;;;;4957713;28;20529;-76
2021/09/19 00:18:40;;;;;;;4.27;2.77;;;;;;;;;;4957266;28;20190;-76
2021/09/19 00:21:06;;;;;;;3.43;2.30;;;;;;;;;;4956599;28;20190;-76
2021/09/19 00:23:31;;;;;;;3.17;2.23;;;;;;;;;;4955189;28;20207;-76
2021/09/19 00:25:56;;;;;;;2.70;2.50;;;;;;;;;;4957696;28;20238;-76
2021/09/19 00:28:21;;;;;;;4.47;2.20;;;;;;;;;;4953438;28;20186;-77
2021/09/19 00:30:47;;;;;;;2.00;1.83;;;;;;;;;;4957996;28;22429;-76
2021/09/19 00:33:12;;;;;;;3.60;2.33;;;;;;;;;;4960104;28;20210;-77
2021/09/19 00:35:37;;;;;;;2.70;2.20;;;;;;;;;;4957929;28;20542;-76
2021/09/19 00:38:02;;;;;;;3.00;2.17;;;;;;;;;;4958850;28;20219;-77
2021/09/19 00:40:28;;;;;;;2.17;1.97;;;;;;;;;;4960519;28;20724;-77
2021/09/19 00:42:53;;;;;;;2.33;2.13;;;;;;;;;;4963025;28;20908;-76
2021/09/19 00:45:20;;;;;;;2.37;1.90;;;;;;;;;;4960903;28;20193;-75
2021/09/19 00:47:47;;;;;;;2.30;1.80;;;;;;;;;;4957434;28;20241;-76
2021/09/19 00:50:13;;;;;;;2.20;2.00;;;;;;;;;;4960020;28;20629;-76
2021/09/19 00:52:39;;;;;;;5.23;2.03;;;;;;;;;;4957902;28;20497;-77
2021/09/19 00:55:05;;;;;;;3.77;2.57;;;;;;;;;;4963258;28;20214;-77
2021/09/19 00:57:31;;;;;;;4.17;2.53;;;;;;;;;;4960631;28;20438;-77
2021/09/19 00:59:57;;;;;;;2.90;2.30;;;;;;;;;;4957008;28;21006;-76
2021/09/19 01:02:22;;;;;;;2.97;2.37;;;;;;;;;;4959158;28;20469;-76
2021/09/19 01:04:48;;;;;;;2.80;2.37;;;;;;;;;;4956134;28;20225;-76
2021/09/19 01:07:14;;;;;;;4.17;2.53;;;;;;;;;;4960646;28;20202;-76
2021/09/19 01:09:39;;;;;;;6.83;2.33;;;;;;;;;;4959121;28;20708;-76
2021/09/19 01:12:05;;;;;;;4.53;2.50;;;;;;;;;;4959281;28;20536;-77
2021/09/19 01:14:30;;;;;;;2.57;2.33;;;;;;;;;;4960221;28;20218;-77
2021/09/19 01:16:59;;;;;;;3.03;2.50;;;;;;;;;;4961107;28;20847;-77
2021/09/19 01:19:26;;;;;;;3.57;1.93;;;;;;;;;;4961737;28;20562;-77
2021/09/19 01:21:51;;;;;;;2.20;1.97;;;;;;;;;;4957757;28;20438;-77
2021/09/19 01:24:17;;;;;;;2.80;2.47;;;;;;;;;;4959568;28;20776;-76
2021/09/19 01:26:42;;;;;;;3.30;2.00;;;;;;;;;;4958515;28;20202;-76
2021/09/19 01:29:07;;;;;;;3.13;2.20;;;;;;;;;;4961343;28;20217;-77
2021/09/19 01:31:36;;;;;;;3.20;2.47;;;;;;;;;;4959556;28;20190;-76
2021/09/19 01:34:01;;;;;;;3.40;2.17;;;;;;;;;;4960432;28;20209;-77
2021/09/19 01:36:26;;;;;;;3.20;2.33;;;;;;;;;;4962490;28;20496;-77
2021/09/19 01:38:52;;;;;;;2.60;2.30;;;;;;;;;;4961152;28;20175;-77
2021/09/19 01:41:21;;;;;;;2.50;2.30;;;;;;;;;;4959196;28;20183;-77
2021/09/19 01:43:46;;;;;;;2.23;1.93;;;;;;;;;;4960116;28;20222;-76
2021/09/19 01:46:12;;;;;;;2.10;1.93;;;;;;;;;;4958356;28;20444;-76
2021/09/19 01:48:37;;;;;;;3.23;2.33;;;;;;;;;;4959033;28;20178;-76
2021/09/19 01:51:03;;;;;;;3.13;2.00;;;;;;;;;;4960610;28;20190;-77
2021/09/19 01:53:29;;;;;;;3.90;2.40;;;;;;;;;;4955887;28;20711;-76
2021/09/19 01:55:55;;;;;;;2.60;2.40;;;;;;;;;;4958700;28;20537;-76
2021/09/19 01:58:20;;;;;;;2.33;1.90;;;;;;;;;;4961013;28;20190;-76
2021/09/19 02:00:45;;;;;;;2.80;2.50;;;;;;;;;;4959424;28;20175;-76
2021/09/19 02:03:11;;;;;;;4.33;2.00;;;;;;;;;;4958296;28;20230;-76
2021/09/19 02:05:36;;;;;;;6.00;2.00;;;;;;;;;;4960213;28;20667;-76
2021/09/19 02:08:01;;;;;;;3.00;2.43;;;;;;;;;;4960828;28;20562;-76
2021/09/19 02:10:26;;;;;;;2.37;2.17;;;;;;;;;;4958300;28;20194;-76
2021/09/19 02:12:52;;;;;;;2.13;1.87;;;;;;;;;;4958771;28;20274;-76
2021/09/19 02:15:17;;;;;;;3.47;2.37;;;;;;;;;;4957442;28;20229;-76
2021/09/19 02:17:43;;;;;;;2.50;2.30;;;;;;;;;;4960099;28;20186;-76
2021/09/19 02:20:10;;;;;;;2.77;2.57;;;;;;;;;;4959245;28;21011;-76
2021/09/19 02:22:35;;;;;;;2.93;2.20;;;;;;;;;;4957746;28;20477;-76
2021/09/19 02:25:01;;;;;;;4.97;2.30;;;;;;;;;;4959181;28;20934;-76
2021/09/19 02:27:26;;;;;;;4.73;3.17;;;;;;;;;;4957544;28;20206;-76
2021/09/19 02:29:51;;;;;;;2.47;2.27;;;;;;;;;;4956508;28;20216;-76
2021/09/19 02:32:16;;;;;;;2.87;2.40;;;;;;;;;;4958139;28;20242;-76
2021/09/19 02:34:42;;;;;;;5.50;2.60;;;;;;;;;;4958585;28;20238;-76
2021/09/19 02:37:07;;;;;;;2.93;2.67;;;;;;;;;;4956971;28;20189;-76
2021/09/19 02:39:32;;;;;;;5.17;2.80;;;;;;;;;;4953964;28;20182;-76
2021/09/19 02:41:57;;;;;;;2.97;2.70;;;;;;;;;;4961040;28;20179;-75
2021/09/19 02:44:23;;;;;;;3.50;2.43;;;;;;;;;;4956374;28;20278;-76
2021/09/19 02:46:48;;;;;;;3.10;2.60;;;;;;;;;;4954120;28;20175;-75
2021/09/19 02:49:13;;;;;;;3.20;2.60;;;;;;;;;;4959337;28;20186;-76
2021/09/19 02:51:38;;;;;;;2.80;2.33;;;;;;;;;;4959607;28;20282;-77
2021/09/19 02:54:04;;;;;;;2.90;2.60;;;;;;;;;;4956927;28;20250;-75
2021/09/19 02:56:29;;;;;;;2.83;2.57;;;;;;;;;;4959573;28;20174;-76
2021/09/19 02:58:54;;;;;;;2.63;2.43;;;;;;;;;;4960082;28;20167;-76
2021/09/19 03:01:20;;;;;;;2.90;2.67;;;;;;;;;;4951279;28;20183;-76
2021/09/19 03:03:45;;;;;;;3.47;2.90;;;;;;;;;;4954432;28;20203;-77
2021/09/19 03:06:10;;;;;;;4.57;2.77;;;;;;;;;;4956870;28;20178;-76
2021/09/19 03:08:35;;;;;;;3.23;2.93;;;;;;;;;;4957188;28;20700;-77
2021/09/19 03:11:01;;;;;;;3.10;2.37;;;;;;;;;;4955240;28;20167;-77
2021/09/19 03:13:26;;;;;;;8.50;2.97;;;;;;;;;;4958517;28;20289;-77
2021/09/19 03:15:51;;;;;;;4.10;2.97;;;;;;;;;;4955059;28;20732;-76
2021/09/19 03:18:16;;;;;;;4.17;2.50;;;;;;;;;;4960413;28;20174;-76
2021/09/19 03:20:42;;;;;;;4.43;3.10;;;;;;;;;;4953492;28;20187;-76
2021/09/19 03:23:07;;;;;;;5.30;2.80;;;;;;;;;;4960183;28;20840;-76
2021/09/19 03:25:32;;;;;;;3.40;2.67;;;;;;;;;;4959327;28;20627;-76
2021/09/19 03:27:58;;;;;;;2.90;2.60;;;;;;;;;;4957504;28;20190;-76
2021/09/19 03:30:23;;;;;;;3.47;2.53;;;;;;;;;;4957382;28;20191;-76
2021/09/19 03:32:49;;;;;;;4.30;2.87;;;;;;;;;;4955989;28;20756;-76
2021/09/19 03:35:14;;;;;;;4.53;2.83;;;;;;;;;;4955522;28;20281;-76
2021/09/19 03:37:39;;;;;;;4.00;2.43;;;;;;;;;;4959076;28;20176;-76
2021/09/19 03:40:06;;;;;;;2.80;2.40;;;;;;;;;;4959018;28;20187;-76
2021/09/19 03:42:31;;;;;;;4.27;2.70;;;;;;;;;;4959046;28;20210;-76
2021/09/19 03:44:56;;;;;;;6.80;3.10;;;;;;;;;;4954025;28;20508;-76
2021/09/19 03:47:22;;;;;;;7.30;2.77;;;;;;;;;;4957221;28;20648;-76
2021/09/19 03:49:47;;;;;;;3.60;2.90;;;;;;;;;;4956382;28;20674;-76
2021/09/19 03:52:13;;;;;;;4.03;2.97;;;;;;;;;;4959402;28;20210;-76
2021/09/19 03:54:38;;;;;;;4.57;2.93;;;;;;;;;;4957593;28;20199;-76
2021/09/19 03:57:03;;;;;;;2.73;2.53;;;;;;;;;;4958639;28;20666;-76
2021/09/19 03:59:29;;;;;;;4.30;2.97;;;;;;;;;;4958626;28;20639;-76
2021/09/19 04:01:54;;;;;;;3.03;2.80;;;;;;;;;;4953645;28;20182;-76
2021/09/19 04:04:19;;;;;;;5.50;2.77;;;;;;;;;;4955274;28;20185;-75
2021/09/19 04:06:44;;;;;;;4.57;3.20;;;;;;;;;;4953870;28;20179;-77
2021/09/19 04:09:10;;;;;;;5.00;3.00;;;;;;;;;;4955252;28;20191;-76
2021/09/19 04:11:35;;;;;;;3.07;2.77;;;;;;;;;;4957750;28;20189;-77
2021/09/19 04:14:01;;;;;;;5.20;2.90;;;;;;;;;;4957287;28;20214;-76
2021/09/19 04:16:26;;;;;;;4.50;2.33;;;;;;;;;;4957391;28;20183;-76
2021/09/19 04:18:51;;;;;;;4.37;3.27;;;;;;;;;;4955191;28;20222;-76
2021/09/19 04:21:16;;;;;;;3.87;2.80;;;;;;;;;;4950956;28;20229;-76
2021/09/19 04:23:42;;;;;;;2.70;2.50;;;;;;;;;;4956956;28;20289;-76
2021/09/19 04:26:07;;;;;;;3.37;3.07;;;;;;;;;;4954246;28;20190;-76
2021/09/19 04:28:32;;;;;;;3.63;3.23;;;;;;;;;;4956041;28;20194;-76
2021/09/19 04:30:57;;;;;;;6.50;2.73;;;;;;;;;;4950547;28;20591;-76
2021/09/19 04:33:23;;;;;;;2.90;2.57;;;;;;;;;;4956310;28;20207;-76
2021/09/19 04:35:48;;;;;;;5.67;3.43;;;;;;;;;;4955373;28;20700;-76
2021/09/19 04:38:13;;;;;;;5.03;3.13;;;;;;;;;;4963997;28;20249;-76
2021/09/19 04:40:38;;;;;;;4.97;3.50;;;;;;;;;;4961189;28;20179;-76
2021/09/19 04:43:03;;;;;;;3.37;3.07;;;;;;;;;;4952857;28;20309;-76
2021/09/19 04:45:29;;;;;;;4.67;2.83;;;;;;;;;;4956612;28;20651;-76
2021/09/19 04:47:54;;;;;;;3.77;2.70;;;;;;;;;;4956445;28;20191;-76
2021/09/19 04:50:19;;;;;;;3.77;3.43;;;;;;;;;;4956149;28;20271;-76
2021/09/19 04:52:44;;;;;;;8.43;2.90;;;;;;;;;;4956096;28;20199;-76
2021/09/19 04:55:10;;;;;;;3.60;3.20;;;;;;;;;;4957718;28;20202;-76
2021/09/19 04:57:35;;;;;;;4.53;3.30;;;;;;;;;;4958377;28;20175;-76
2021/09/19 05:00:00;;;;;;;7.57;4.10;;;;;;;;;;4954820;28;20175;-76
2021/09/19 05:02:26;;;;;;;4.13;3.20;;;;;;;;;;4952504;28;22554;-76
2021/09/19 05:04:51;;;;;;;4.30;3.90;;;;;;;;;;4958225;28;20193;-76
2021/09/19 05:07:16;;;;;;;3.67;3.20;;;;;;;;;;4955398;28;20191;-76
2021/09/19 05:09:42;;;;;;;7.03;4.30;;;;;;;;;;4958800;28;20190;-76
2021/09/19 05:12:07;;;;;;;3.50;2.73;;;;;;;;;;4957020;28;20214;-76
2021/09/19 05:14:32;;;;;;;4.50;3.13;;;;;;;;;;4956969;28;20219;-76
2021/09/19 05:16:58;;;;;;;6.27;3.07;;;;;;;;;;4955626;28;20215;-76
2021/09/19 05:19:23;;;;;;;5.50;3.70;;;;;;;;;;4958040;28;20178;-76
2021/09/19 05:21:48;;;;;;;4.27;3.90;;;;;;;;;;4960174;28;20205;-76
2021/09/19 05:24:13;;;;;;;5.73;3.87;;;;;;;;;;4959028;28;20187;-76
2021/09/19 05:26:39;;;;;;;4.67;3.70;;;;;;;;;;4960633;28;20194;-76
2021/09/19 05:29:04;;;;;;;3.80;3.20;;;;;;;;;;4958609;28;20180;-76
2021/09/19 05:31:30;;;;;;;8.80;3.57;;;;;;;;;;4957218;28;20237;-76
2021/09/19 05:33:55;;;;;;;8.10;3.80;;;;;;;;;;4959798;28;20226;-77
2021/09/19 05:36:21;;;;;;;4.97;3.43;;;;;;;;;;4960864;28;20856;-76
2021/09/19 05:38:46;;;;;;;3.90;3.60;;;;;;;;;;4960550;28;20175;-76
2021/09/19 05:41:11;;;;;;;3.90;3.50;;;;;;;;;;4960553;28;25716;-76
2021/09/19 05:43:36;;;;;;;5.83;3.40;;;;;;;;;;4958911;28;20770;-76
2021/09/19 05:46:02;;;;;;;5.80;3.90;;;;;;;;;;4961741;28;20178;-76
2021/09/19 05:48:27;;;;;;;4.30;3.53;;;;;;;;;;4959786;28;20182;-76
2021/09/19 05:50:52;;;;;;;5.27;3.17;;;;;;;;;;4959784;28;20842;-76
2021/09/19 05:53:17;;;;;;;4.53;3.73;;;;;;;;;;4961082;28;20746;-76
2021/09/19 05:55:43;;;;;;;7.50;3.83;;;;;;;;;;4961606;28;20210;-76
2021/09/19 05:58:08;;;;;;;3.87;3.30;;;;;;;;;;4960258;28;20201;-76
2021/09/19 06:00:33;;;;;;;5.90;3.83;;;;;;;;;;4958359;28;20182;-76
2021/09/19 06:02:59;;;;;;;4.20;3.77;;;;;;;;;;4956777;28;20199;-77
2021/09/19 06:05:24;;;;;;;4.30;3.90;;;;;;;;;;4958552;28;20187;-76
2021/09/19 06:07:49;;;;;;;4.13;3.70;;;;;;;;;;4957663;28;20176;-76
2021/09/19 06:10:14;;;;;;;4.53;3.50;;;;;;;;;;4966885;28;20191;-76
2021/09/19 06:12:40;;;;;;;4.00;3.27;;;;;;;;;;4956758;28;20218;-76
2021/09/19 06:15:05;;;;;;;4.20;3.77;;;;;;;;;;4955006;28;20276;-76
2021/09/19 06:17:31;;;;;;;5.00;3.37;;;;;;;;;;4956112;28;20765;-76
2021/09/19 06:19:57;;;;;;;5.10;3.97;;;;;;;;;;4961751;28;20697;-76
2021/09/19 06:22:22;;;;;;;6.13;3.87;;;;;;;;;;4957280;28;20469;-75
2021/09/19 06:24:48;;;;;;;6.70;3.17;;;;;;;;;;4959399;28;20194;-75
2021/09/19 06:27:13;;;;;;;4.10;3.40;;;;;;;;;;4959370;28;20198;-76
2021/09/19 06:29:39;;;;;;;4.57;3.10;;;;;;;;;;4957813;28;20183;-76
2021/09/19 06:32:05;;;;;;;4.10;3.27;;;;;;;;;;4960359;28;20191;-76
2021/09/19 06:34:30;;;;;;;4.00;3.60;;;;;;;;;;4963997;28;20203;-76
2021/09/19 06:36:55;;;;;;;7.20;3.70;;;;;;;;;;4961494;28;20183;-77
2021/09/19 06:39:20;;;;;;;6.07;3.70;;;;;;;;;;4964184;28;20210;-77
2021/09/19 06:41:46;;;;;;;4.70;3.70;;;;;;;;;;4955936;28;20176;-76
2021/09/19 06:44:11;;;;;;;3.93;2.87;;;;;;;;;;4960489;28;20198;-76
2021/09/19 06:46:36;;;;;;;3.40;3.10;;;;;;;;;;4958612;28;20544;-76
2021/09/19 06:49:02;;;;;;;3.97;3.53;;;;;;;;;;4962596;28;20187;-76
2021/09/19 06:51:28;;;;;;;5.20;3.20;;;;;;;;;;4964416;28;20187;-77
2021/09/19 06:53:53;;;;;;;7.80;3.90;;;;;;;;;;4958963;28;20780;-76
2021/09/19 06:56:20;;;;;;;4.77;3.80;;;;;;;;;;4961843;28;20270;-77
2021/09/19 06:58:46;;;;;;;5.30;3.10;;;;;;;;;;4962908;28;20256;-76
2021/09/19 07:01:11;;;;;;;6.10;3.37;;;;;;;;;;4958642;28;20865;-76
2021/09/19 07:03:36;;;;;;;4.13;3.40;;;;;;;;;;4957911;28;23469;-75
2021/09/19 07:06:01;;;;;;;6.93;3.53;;;;;;;;;;4959942;28;20201;-76
2021/09/19 07:08:27;;;;;;;4.70;3.50;;;;;;;;;;4956599;28;20194;-76
2021/09/19 07:10:53;;;;;;;4.83;3.40;;;;;;;;;;4970581;28;20175;-76
2021/09/19 07:13:18;;;;;;;3.57;3.27;;;;;;;;;;4954590;28;20254;-76
2021/09/19 07:15:43;;;;;;;4.37;3.30;;;;;;;;;;4956961;28;20217;-76
2021/09/19 07:18:12;;;;;;;4.07;3.00;;;;;;;;;;4955478;28;20183;-76
2021/09/19 07:20:37;;;;;;;3.60;3.30;;;;;;;;;;4960315;28;20214;-76
2021/09/19 07:23:02;;;;;;;5.73;2.90;;;;;;;;;;4958371;28;20457;-76
2021/09/19 07:25:28;;;;;;;3.60;3.20;;;;;;;;;;4962347;28;20257;-76
2021/09/19 07:27:53;;;;;;;5.70;3.30;;;;;;;;;;4960486;28;20183;-76
2021/09/19 07:30:18;;;;;;;3.83;3.17;;;;;;;;;;4959544;28;20715;-76
2021/09/19 07:32:44;;;;;;;4.83;3.17;;;;;;;;;;4959022;28;20211;-76
2021/09/19 07:35:09;;;;;;;2.97;2.67;;;;;;;;;;4959187;28;20210;-76
2021/09/19 07:37:34;;;;;;;3.80;2.60;;;;;;;;;;4960343;28;20579;-76
2021/09/19 07:40:00;;;;;;;2.70;2.50;;;;;;;;;;4960023;28;20194;-76
2021/09/19 07:42:25;;;;;;;2.77;2.50;;;;;;;;;;4958528;28;20222;-76
2021/09/19 07:44:51;;;;;;;3.70;2.90;;;;;;;;;;4958570;28;20270;-76
2021/09/19 07:47:16;;;;;;;4.63;3.27;;;;;;;;;;4958369;28;20220;-76
2021/09/19 07:49:42;;;;;;;4.20;2.80;;;;;;;;;;4959976;28;20178;-76
2021/09/19 07:52:08;;;;;;;3.00;2.70;;;;;;;;;;4962547;28;20324;-77
2021/09/19 07:54:33;;;;;;;3.03;2.83;;;;;;;;;;4960838;28;20449;-76
2021/09/19 07:56:58;;;;;;;2.97;2.70;;;;;;;;;;4962321;28;20430;-77
2021/09/19 07:59:24;;;;;;;3.13;2.67;;;;;;;;;;4959629;28;20257;-77
2021/09/19 08:01:49;;;;;;;4.53;2.43;;;;;;;;;;4958104;28;20190;-76
2021/09/19 08:04:14;;;;;;;4.13;2.70;;;;;;;;;;4961440;28;20238;-77
2021/09/19 08:06:39;;;;;;;3.43;2.83;;;;;;;;;;4961624;28;20175;-77
2021/09/19 08:09:05;;;;;;;3.10;2.80;;;;;;;;;;4956158;28;20186;-77
2021/09/19 08:11:30;;;;;;;2.20;2.10;;;;;;;;;;4959842;28;20217;-78
2021/09/19 08:14:05;;;;;;;4.10;2.83;;;;;;;;;;4959744;28;20258;-78
2021/09/19 08:16:33;;;;;;;3.43;3.00;;;;;;;;;;4960962;28;20593;-77
2021/09/19 08:18:58;;;;;;;3.53;3.23;;;;;;;;;;4956600;28;20471;-77
2021/09/19 08:21:23;;;;;;;3.37;2.83;;;;;;;;;;4960116;28;20441;-77
2021/09/19 08:23:48;;;;;;;4.07;3.40;;;;;;;;;;4958970;28;20217;-78
2021/09/19 08:26:13;;;;;;;5.10;3.00;;;;;;;;;;4957304;28;20194;-77
2021/09/19 08:28:39;;;;;;;5.37;2.93;;;;;;;;;;4959545;28;20201;-78
2021/09/19 08:31:04;;;;;;;3.60;2.90;;;;;;;;;;4960739;28;20726;-79
2021/09/19 08:33:29;;;;;;;3.73;2.83;;;;;;;;;;4958947;28;20199;-79
2021/09/19 08:35:55;;;;;;;3.37;2.63;;;;;;;;;;4959362;28;20179;-78
2021/09/19 08:38:21;;;;;;;4.47;3.07;;;;;;;;;;4961226;28;20185;-78
2021/09/19 08:40:46;;;;;;;3.17;2.53;;;;;;;;;;4958036;28;20441;-78
2021/09/19 08:43:11;;;;;;;3.33;3.03;;;;;;;;;;4959895;28;20217;-77
2021/09/19 08:45:37;;;;;;;3.37;2.80;;;;;;;;;;4959328;28;20794;-77
2021/09/19 08:48:03;;;;;;;2.90;2.53;;;;;;;;;;4966275;28;20388;-78
2021/09/19 08:50:28;;;;;;;3.77;3.47;;;;;;;;;;4962848;28;20529;-77
2021/09/19 08:52:53;;;;;;;3.30;2.90;;;;;;;;;;4963067;28;20206;-77
2021/09/19 08:55:18;;;;;;;5.30;3.70;;;;;;;;;;4962922;28;20214;-77
2021/09/19 08:57:46;;;;;;;3.40;2.90;;;;;;;;;;4968229;28;20261;-76
2021/09/19 09:00:14;;;;;;;5.13;3.20;;;;;;;;;;4966487;28;20285;-76
2021/09/19 09:02:50;;;;;;;2.93;2.63;;;;;;;;;;4960971;28;20464;-78
2021/09/19 09:05:28;;;;;;;3.37;3.00;;;;;;;;;;4960205;28;20444;-77
2021/09/19 09:07:55;;;;;;;3.47;3.03;;;;;;;;;;4961638;28;20857;-77
2021/09/19 09:10:40;;;;;;;4.90;3.27;;;;;;;;;;4963285;28;20448;-77
2021/09/19 09:13:09;;;;;;;3.50;2.87;;;;;;;;;;4960075;28;20546;-77
2021/09/19 09:15:35;;;;;;;4.53;3.27;;;;;;;;;;4962319;28;20469;-78
2021/09/19 09:18:04;;;;;;;6.43;2.90;;;;;;;;;;4965460;28;20422;-78
2021/09/19 09:20:45;;;;;;;4.30;2.97;;;;;;;;;;4965731;28;20421;-78
2021/09/19 09:23:20;;;;;;;3.60;3.00;;;;;;;;;;4962664;28;20992;-77
2021/09/19 09:25:45;;;;;;;4.60;3.10;;;;;;;;;;4965738;28;20444;-78
2021/09/19 09:28:11;;;;;;;4.93;3.77;;;;;;;;;;4965102;28;20472;-78
2021/09/19 09:30:36;;;;;;;5.00;3.50;;;;;;;;;;4965098;28;20187;-78
2021/09/19 09:33:03;;;;;;;3.87;2.73;;;;;;;;;;4963167;28;20197;-78
2021/09/19 09:35:33;;;;;;;7.73;3.80;;;;;;;;;;4964328;28;20288;-78
2021/09/19 09:37:59;;;;;;;6.53;3.50;;;;;;;;;;4962719;28;20433;-78
2021/09/19 09:40:26;;;;;;;3.27;2.97;;;;;;;;;;4963820;28;20449;-78
2021/09/19 09:43:00;;;;;;;3.47;3.00;;;;;;;;;;4962652;28;20202;-78
2021/09/19 09:45:26;;;;;;;7.40;3.30;;;;;;;;;;4961474;28;20442;-77
2021/09/19 09:47:51;;;;;;;2.93;2.60;;;;;;;;;;4961737;28;20427;-79
2021/09/19 09:50:23;;;;;;;4.37;3.47;;;;;;;;;;4964306;28;20187;-78
2021/09/19 09:52:48;;;;;;;3.73;3.20;;;;;;;;;;4965302;28;20739;-78
2021/09/19 09:55:13;;;;;;;3.30;3.10;;;;;;;;;;4962363;28;20465;-78
2021/09/19 09:58:01;;;;;;;3.10;2.70;;;;;;;;;;4964284;28;20179;-78
2021/09/19 10:00:26;;;;;;;3.27;2.83;;;;;;;;;;4964238;28;20197;-77
2021/09/19 10:02:52;;;;;;;4.50;3.57;;;;;;;;;;4959520;28;20454;-77
2021/09/19 10:05:18;;;;;;;3.87;2.80;;;;;;;;;;4965485;28;20190;-78
2021/09/19 10:07:44;;;;;;;4.60;3.20;;;;;;;;;;4961816;28;20189;-78
2021/09/19 10:10:10;;;;;;;3.63;3.30;;;;;;;;;;4961547;28;20429;-78
2021/09/19 10:12:36;;;;;;;3.20;2.90;;;;;;;;;;4964938;28;20593;-78
2021/09/19 10:15:01;;;;;;;5.20;3.33;;;;;;;;;;4961495;28;20461;-78
2021/09/19 10:17:31;;;;;;;6.40;3.40;;;;;;;;;;4962900;28;20186;-78
2021/09/19 10:19:56;;;;;;;6.00;3.20;;;;;;;;;;4965245;28;20167;-79
2021/09/19 10:22:27;;;;;;;3.73;3.07;;;;;;;;;;4964360;28;20456;-78
2021/09/19 10:24:53;;;;;;;3.47;2.83;;;;;;;;;;4976636;28;20204;-78
2021/09/19 10:27:23;;;;;;;3.77;3.03;;;;;;;;;;4963417;28;21406;-78
2021/09/19 10:29:55;;;;;;;3.03;2.70;;;;;;;;;;4960975;28;20182;-78
2021/09/19 10:32:39;;;;;;;3.93;2.77;;;;;;;;;;4964938;28;20958;-78
2021/09/19 10:35:17;;;;;;;2.90;2.70;;;;;;;;;;4961056;28;20480;-78
2021/09/19 10:37:54;;;;;;;12.73;3.13;;;;;;;;;;4961236;28;20466;-78
2021/09/19 10:40:48;;;;;;;5.30;2.73;;;;;;;;;;4962771;28;20432;-78
2021/09/19 10:43:23;;;;;;;7.57;2.60;;;;;;;;;;4960845;28;20854;-78
2021/09/19 10:45:52;;;;;;;3.70;2.80;;;;;;;;;;4960448;28;20425;-78
2021/09/19 10:48:18;;;;;;;7.07;2.50;;;;;;;;;;4962495;28;20419;-78
2021/09/19 10:50:45;;;;;;;2.40;2.20;;;;;;;;;;4960807;28;20947;-78
2021/09/19 10:53:16;;;;;;;2.50;2.20;;;;;;;;;;4961991;28;20455;-78
2021/09/19 10:55:44;;;;;;;4.23;2.60;;;;;;;;;;4959537;28;20462;-78
2021/09/19 10:58:11;;;;;;;1.93;1.70;;;;;;;;;;4963711;28;20441;-79
2021/09/19 11:00:36;;;;;;;3.20;2.90;;;;;;;;;;4965315;28;20430;-78
2021/09/19 11:03:06;;;;;;;4.80;2.40;;;;;;;;;;4965129;28;20453;-77
2021/09/19 11:05:50;;;;;;;2.17;1.90;;;;;;;;;;4969555;28;20193;-78
2021/09/19 11:08:22;;;;;;;2.17;1.97;;;;;;;;;;4963713;28;20796;-77
2021/09/19 11:10:55;;;;;;;6.27;2.63;;;;;;;;;;4961653;28;20457;-78
2021/09/19 11:13:22;;;;;;;3.13;2.30;;;;;;;;;;4965226;28;20434;-78
2021/09/19 11:16:02;;;;;;;2.40;2.20;;;;;;;;;;4959659;28;20463;-78
2021/09/19 11:18:31;;;;;;;1.93;1.77;;;;;;;;;;4955200;28;20453;-78
2021/09/19 11:21:15;;;;;;;3.27;1.80;;;;;;;;;;4959109;28;20943;-78
2021/09/19 11:23:42;;;;;;;3.17;2.60;;;;;;;;;;4961444;28;20490;-78
2021/09/19 11:26:09;;;;;;;3.43;2.20;;;;;;;;;;4959566;28;20954;-76
2021/09/19 11:28:35;;;;;;;2.37;1.87;;;;;;;;;;4961351;28;20472;-75
2021/09/19 11:31:00;;;;;;;2.07;1.97;;;;;;;;;;4960246;28;20469;-76
2021/09/19 11:33:25;;;;;;;1.90;1.70;;;;;;;;;;4957250;28;20460;-76
2021/09/19 11:35:51;;;;;;;3.33;2.13;;;;;;;;;;4960105;28;20191;-77
2021/09/19 11:38:20;;;;;;;2.53;2.33;;;;;;;;;;4955219;28;20207;-76
2021/09/19 11:40:45;;;;;;;3.33;2.20;;;;;;;;;;4961360;28;20180;-77
2021/09/19 11:43:11;;;;;;;1.80;1.70;;;;;;;;;;4966493;28;20461;-76
2021/09/19 11:45:38;;;;;;;3.43;2.23;;;;;;;;;;4956782;28;20900;-75
2021/09/19 11:48:05;;;;;;;3.73;2.40;;;;;;;;;;4958151;28;20175;-75
2021/09/19 11:50:34;;;;;;;1.87;1.77;;;;;;;;;;4953370;28;20477;-76
2021/09/19 11:53:03;;;;;;;2.57;2.10;;;;;;;;;;4956854;28;20459;-76
2021/09/19 11:55:28;;;;;;;2.40;1.90;;;;;;;;;;4956804;28;20882;-77
2021/09/19 11:57:54;;;;;;;2.67;1.70;;;;;;;;;;4959693;28;20534;-75
2021/09/19 12:00:19;;;;;;;2.20;2.00;;;;;;;;;;4959951;28;20722;-76
2021/09/19 12:02:46;;;;;;;2.23;2.00;;;;;;;;;;4956007;28;20671;-76
2021/09/19 12:05:13;;;;;;;1.83;1.73;;;;;;;;;;4955766;28;20190;-76
2021/09/19 12:07:38;;;;;;;2.70;2.40;;;;;;;;;;4955470;28;20481;-82
2021/09/19 12:10:04;;;;;;;2.40;2.20;;;;;;;;;;4965201;28;20433;-81
2021/09/19 12:12:30;;;;;;;2.73;2.10;;;;;;;;;;4958590;28;20222;-80
2021/09/19 12:14:55;;;;;;;1.90;1.80;;;;;;;;;;4961084;28;20194;-80
2021/09/19 12:17:27;;;;;;;4.47;2.10;;;;;;;;;;4960616;28;20805;-79
2021/09/19 12:19:57;;;;;;;3.43;2.03;;;;;;;;;;4958425;28;20182;-77
2021/09/19 12:22:25;;;;;;;2.77;2.30;;;;;;;;;;4957413;28;20430;-79
2021/09/19 12:24:54;;;;;;;2.17;1.97;;;;;;;;;;4957846;28;20434;-79
2021/09/19 12:27:24;;;;;;;2.00;1.90;;;;;;;;;;4961803;28;20915;-80
2021/09/19 12:29:56;;;;;;;2.33;2.13;;;;;;;;;;4965844;28;20442;-80
2021/09/19 12:32:21;;;;;;;1.77;1.63;;;;;;;;;;4963745;28;20460;-82
2021/09/19 12:34:46;;;;;;;2.23;2.00;;;;;;;;;;4961927;28;20466;-76
2021/09/19 12:37:13;;;;;;;2.70;1.63;;;;;;;;;;4960177;28;20183;-76
2021/09/19 12:39:39;;;;;;;3.50;3.20;;;;;;;;;;4958692;28;20178;-76
2021/09/19 12:42:05;;;;;;;4.80;4.03;;;;;;;;;;4964524;28;20443;-75
2021/09/19 12:44:31;;;;;;;4.10;2.67;;;;;;;;;;4957614;28;20551;-82
2021/09/19 12:46:59;;;;;;;23.03;17.93;;;;;;;;;;4965873;28;20442;-81
2021/09/19 12:49:25;;;;;;;6.60;5.60;;;;;;;;;;4968895;28;20513;-81
2021/09/19 12:52:10;;;;;;;24.20;17.77;;;;;;;;;;4964861;28;20434;-81
2021/09/19 12:54:50;;;;;;;30.10;20.77;;;;;;;;;;4966758;28;20523;-79
2021/09/19 12:57:18;;;;;;;50.43;35.90;;;;;;;;;;4960926;28;20923;-80
2021/09/19 12:59:43;;;;;;;16.10;11.37;;;;;;;;;;4957119;28;20442;-77
2021/09/19 13:02:09;;;;;;;14.83;11.93;;;;;;;;;;4961050;28;20520;-76
2021/09/19 13:04:34;;;;;;;24.60;17.03;;;;;;;;;;4961043;28;20186;-76
2021/09/19 13:06:59;;;;;;;18.17;12.77;;;;;;;;;;4960561;28;20630;-77
2021/09/19 13:09:25;;;;;;;10.10;6.03;;;;;;;;;;4961058;28;20732;-76
2021/09/19 13:11:50;;;;;;;18.60;13.13;;;;;;;;;;4959090;28;20227;-76
2021/09/19 13:14:15;;;;;;;12.67;10.37;;;;;;;;;;4961421;28;20202;-77
2021/09/19 13:16:41;;;;;;;11.50;8.10;;;;;;;;;;4961111;28;20549;-77
2021/09/19 13:19:07;;;;;;;16.93;13.50;;;;;;;;;;4960461;28;20334;-77
2021/09/19 13:21:32;;;;;;;10.63;8.70;;;;;;;;;;4960319;28;20557;-77
2021/09/19 13:23:57;;;;;;;19.20;13.33;;;;;;;;;;4959469;28;20457;-77
2021/09/19 13:26:22;;;;;;;19.50;12.50;;;;;;;;;;4961600;28;20555;-78
2021/09/19 13:28:48;;;;;;;12.07;8.90;;;;;;;;;;4960280;28;20187;-78
2021/09/19 13:31:13;;;;;;;9.90;7.47;;;;;;;;;;4963803;28;20186;-78
2021/09/19 13:33:38;;;;;;;6.10;4.00;;;;;;;;;;4960247;28;20210;-79
2021/09/19 13:36:04;;;;;;;3.73;3.43;;;;;;;;;;4963469;28;20218;-79
2021/09/19 13:38:29;;;;;;;4.17;3.00;;;;;;;;;;4962240;28;20719;-79
2021/09/19 13:40:56;;;;;;;5.40;4.90;;;;;;;;;;4964012;28;20174;-79
2021/09/19 13:43:21;;;;;;;6.70;4.30;;;;;;;;;;4964790;28;20242;-78
2021/09/19 13:45:46;;;;;;;5.47;4.33;;;;;;;;;;4961483;28;20528;-79
2021/09/19 13:48:12;;;;;;;9.07;7.23;;;;;;;;;;4963407;28;20659;-77
2021/09/19 13:50:37;;;;;;;4.63;3.37;;;;;;;;;;4960856;28;20197;-79
2021/09/19 13:53:02;;;;;;;5.57;4.50;;;;;;;;;;4963044;28;20244;-79
2021/09/19 13:55:28;;;;;;;3.90;2.90;;;;;;;;;;4963874;28;20206;-78
2021/09/19 13:57:53;;;;;;;2.97;2.67;;;;;;;;;;4965877;28;20183;-76
2021/09/19 14:00:18;;;;;;;2.30;2.10;;;;;;;;;;4960545;28;21247;-72
2021/09/19 14:02:43;;;;;;;3.40;3.10;;;;;;;;;;4952978;28;20214;-73
2021/09/19 14:05:09;;;;;;;3.60;3.20;;;;;;;;;;4957522;28;20190;-73
2021/09/19 14:07:34;;;;;;;3.30;2.60;;;;;;;;;;4956520;28;20661;-73
2021/09/19 14:10:00;;;;;;;5.53;3.00;;;;;;;;;;4958337;28;20273;-73
2021/09/19 14:12:25;;;;;;;3.00;2.70;;;;;;;;;;4956584;28;20217;-73
2021/09/19 14:14:50;;;;;;;2.80;2.53;;;;;;;;;;4961964;28;20202;-73
2021/09/19 14:17:16;;;;;;;2.97;2.40;;;;;;;;;;4957214;28;20265;-73
2021/09/19 14:19:41;;;;;;;3.20;2.20;;;;;;;;;;4960449;28;20250;-73
2021/09/19 14:22:07;;;;;;;2.80;2.60;;;;;;;;;;4962787;28;20210;-73
2021/09/19 14:24:32;;;;;;;2.13;2.03;;;;;;;;;;4964192;28;20190;-73
2021/09/19 14:26:57;;;;;;;4.70;2.70;;;;;;;;;;4958708;28;20551;-73
2021/09/19 14:29:22;;;;;;;2.90;2.70;;;;;;;;;;4963332;28;20179;-73
2021/09/19 14:31:48;;;;;;;6.13;3.33;;;;;;;;;;4963268;28;20230;-74
2021/09/19 14:34:13;;;;;;;3.17;2.70;;;;;;;;;;4968723;28;20265;-73
2021/09/19 14:36:39;;;;;;;11.97;2.80;;;;;;;;;;4962744;28;20221;-73